Dycusburg, KY (42037)

12:45 PM CDT on July 23, 2016 (GMT -0500)
yopp road | | Change Station
Active Advisory: Heat Advisory

Elev 394 ft 37.01 °N, 88.16 °W | Updated 4 seconds ago

Scattered Clouds
Scattered Clouds
84.4 °F
Feels Like 93 °F
N
0.0
Wind Variable Wind from WNW
Gusts 0.0 mph

Today
High -- | Low -- °F
--% Chance of Precip.
Yesterday
High -- | Low -- °F
Precip. -- in
Pressure 30.01 in
Visibility 10.0 miles
Clouds Scattered Clouds 2700 ft
Scattered Clouds 4600 ft
Heat Index 93 °F
Dew Point 76 °F
Humidity 75%
Rainfall 0.00 in
Snow Depth Not available.
5:50 AM 8:07 PM
Waning Gibbous, 84% visible
METAR K5M9 231735Z AUTO 16003KT 10SM SCT027 SCT046 31/24 A3001 RMK AO2 T03100244
Pressure 30.01 in
Visibility 10.0 miles
Clouds Scattered Clouds 2700 ft
Scattered Clouds 4600 ft
Heat Index 93 °F
Dew Point 76 °F
Humidity 75%
Rainfall 0.00 in
Snow Depth Not available.
5:50 AM 8:07 PM
Waning Gibbous, 84% visible
METAR K5M9 231735Z AUTO 16003KT 10SM SCT027 SCT046 31/24 A3001 RMK AO2 T03100244

10-Day Weather Forecast

Almanac

Astronomy

Jul. 23, 2016 Rise Set
Actual Time
Civil Twilight
Nautical Twilight
Astronomical Twilight
Moon
Length of Visible Light
Length of Day
Tomorrow will be .
, % of the Moon is Illuminated

Today's Extremes

State Highs State Lows

Community

WunderPhotos

Upload Photos

1,926,878 photos uploaded!

WunderBlog® & News

Nearby

Air Quality

  Air Quality AQ Index Pollutant
Not available.

Snow Depth

Station Depth Elevation

Earthquake Activity

City Distance Mag. Time & Date
Minimum magnitude displayed is 2.5.

Coastal Water Temperatures

Place Temperature

Stations

Nearby Weather Stations

Station Location Temp. Windchill Dew Point Humidity Wind Precip. Elev Updated Type
                   

Watches & Warnings

Heat Advisory
Issued: 8:12 AM CDT Jul. 23, 2016 – National Weather Service

... Heat advisory remains in effect until 8 PM CDT Sunday...

A heat advisory remains in effect for all of southwest Indiana
and the pennyrile region of west Kentucky through 8 PM CDT Sunday.

* The combination of high temperatures in the mid 90s will
combine with oppressive humidity to produce heat indices around
105 degrees each day.

* A heat index of 105 degrees or higher is considered the level
at which the body becomes more susceptible to heat exhaustion
and heat stroke.

Precautionary/preparedness actions...

a heat advisory means that a period of hot temperatures is
expected. The combination of hot temperatures and high humidity
will create a situation in which heat illnesses are possible.
Drink plenty of fluids... stay in an air-conditioned room... stay
out of the sun... and check up on relatives and neighbors.

To reduce risk during outdoor work... the occupational safety and
health administration recommends scheduling frequent rest breaks
in shaded or air conditioned environments. Anyone overcome by heat
should be moved to a cool and shaded location. Heat stroke is an
emergency... call 9 1 1.



Smith